A7LMU OTBD-OMAD
Flight info
| Callsign | A7LMU |
|---|---|
| Flight time | 0h 55m |
| Altitude | 25000 |
| Route | BUND4N BUNDU B415 UKILI UKIL1S |
| Aircraft | PC12/L-SDFGRWY/S |
Departure
| Time | 2026-04-24 13:01 |
|---|---|
| Airport | Doha International Airport (OTBD) |
Arrival
| Time | 2026-04-24 13:57 |
|---|---|
| Airport | Al Bateen Executive Airport (OMAD) |
| Time | Latitude | Longitude | Altitude | Speed | Heading |
|---|---|---|---|---|---|
| 2026-04-24 12:47 | 25.26991 | 51.55842 | 32 ft | 0 kts | 68° |
| 2026-04-24 12:55 | 25.27001 | 51.55868 | 32 ft | 12 kts | 66° |
| 2026-04-24 12:55 | 25.26969 | 51.55929 | 30 ft | 17 kts | 159° |
| 2026-04-24 12:55 | 25.26805 | 51.56001 | 31 ft | 33 kts | 159° |
| 2026-04-24 12:55 | 25.26561 | 51.56108 | 27 ft | 39 kts | 160° |
| 2026-04-24 12:56 | 25.26352 | 51.56201 | 25 ft | 32 kts | 158° |
| 2026-04-24 12:56 | 25.26136 | 51.56296 | 26 ft | 33 kts | 160° |
| 2026-04-24 12:56 | 25.25938 | 51.56384 | 26 ft | 30 kts | 159° |
| 2026-04-24 12:56 | 25.25762 | 51.56463 | 25 ft | 27 kts | 160° |
| 2026-04-24 12:57 | 25.25559 | 51.56549 | 20 ft | 32 kts | 158° |
| 2026-04-24 12:57 | 25.25350 | 51.56643 | 18 ft | 36 kts | 159° |
| 2026-04-24 12:57 | 25.25120 | 51.56742 | 20 ft | 19 kts | 159° |
| 2026-04-24 12:57 | 25.25098 | 51.56819 | 20 ft | 0 kts | 68° |
| 2026-04-24 13:00 | 25.25109 | 51.56850 | 20 ft | 13 kts | 68° |
| 2026-04-24 13:00 | 25.25168 | 51.56921 | 19 ft | 10 kts | 346° |
| 2026-04-24 13:00 | 25.25249 | 51.56887 | 19 ft | 35 kts | 338° |
| 2026-04-24 13:01 | 25.25902 | 51.56596 | 29 ft | 110 kts | 338° |
| 2026-04-24 13:01 | 25.26385 | 51.56375 | 295 ft | 114 kts | 338° |
| 2026-04-24 13:01 | 25.27170 | 51.55994 | 675 ft | 128 kts | 341° |
| 2026-04-24 13:01 | 25.27999 | 51.55661 | 1283 ft | 126 kts | 344° |
| 2026-04-24 13:02 | 25.29099 | 51.55186 | 2253 ft | 126 kts | 341° |
| 2026-04-24 13:02 | 25.29922 | 51.54827 | 2888 ft | 134 kts | 339° |
| 2026-04-24 13:02 | 25.30521 | 51.54559 | 3364 ft | 140 kts | 338° |
| 2026-04-24 13:02 | 25.31444 | 51.54134 | 4049 ft | 146 kts | 332° |
| 2026-04-24 13:03 | 25.32101 | 51.53290 | 4780 ft | 149 kts | 300° |
| 2026-04-24 13:03 | 25.32742 | 51.52210 | 5008 ft | 191 kts | 303° |
| 2026-04-24 13:03 | 25.33598 | 51.50898 | 5021 ft | 224 kts | 306° |
| 2026-04-24 13:03 | 25.34598 | 51.49479 | 5020 ft | 240 kts | 307° |
| 2026-04-24 13:04 | 25.35627 | 51.48026 | 5007 ft | 246 kts | 307° |
| 2026-04-24 13:04 | 25.36678 | 51.46525 | 5005 ft | 248 kts | 307° |
| 2026-04-24 13:04 | 25.37538 | 51.44894 | 4995 ft | 247 kts | 286° |
| 2026-04-24 13:04 | 25.37597 | 51.43014 | 4995 ft | 247 kts | 258° |
| 2026-04-24 13:05 | 25.36841 | 51.41330 | 4997 ft | 247 kts | 230° |
| 2026-04-24 13:05 | 25.35445 | 51.40248 | 4994 ft | 248 kts | 201° |
| 2026-04-24 13:05 | 25.33739 | 51.40043 | 4996 ft | 250 kts | 173° |
| 2026-04-24 13:05 | 25.32180 | 51.40766 | 5406 ft | 236 kts | 148° |
| 2026-04-24 13:06 | 25.30887 | 51.41730 | 6361 ft | 211 kts | 146° |
| 2026-04-24 13:06 | 25.29751 | 51.42599 | 7470 ft | 186 kts | 148° |
| 2026-04-24 13:06 | 25.28754 | 51.43363 | 8602 ft | 165 kts | 150° |
| 2026-04-24 13:06 | 25.27800 | 51.44084 | 9405 ft | 168 kts | 150° |
| 2026-04-24 13:07 | 25.26826 | 51.44818 | 10163 ft | 170 kts | 151° |
| 2026-04-24 13:07 | 25.25856 | 51.45552 | 10937 ft | 169 kts | 151° |
| 2026-04-24 13:07 | 25.24891 | 51.46282 | 11684 ft | 168 kts | 152° |
| 2026-04-24 13:07 | 25.23928 | 51.47015 | 12423 ft | 169 kts | 150° |
| 2026-04-24 13:08 | 25.23134 | 51.47979 | 13151 ft | 177 kts | 128° |
| 2026-04-24 13:08 | 25.22677 | 51.49272 | 13862 ft | 186 kts | 106° |
| 2026-04-24 13:08 | 25.22689 | 51.50734 | 14445 ft | 197 kts | 81° |
| 2026-04-24 13:09 | 25.23369 | 51.53731 | 15602 ft | 204 kts | 78° |
| 2026-04-24 13:09 | 25.23712 | 51.55262 | 16189 ft | 207 kts | 77° |
| 2026-04-24 13:09 | 25.24063 | 51.56818 | 16783 ft | 210 kts | 77° |
| 2026-04-24 13:09 | 25.24419 | 51.58400 | 17392 ft | 214 kts | 76° |
| 2026-04-24 13:10 | 25.24780 | 51.60008 | 17989 ft | 217 kts | 76° |
| 2026-04-24 13:10 | 25.25213 | 51.61617 | 18526 ft | 220 kts | 67° |
| 2026-04-24 13:10 | 25.25793 | 51.63188 | 19064 ft | 222 kts | 66° |
| 2026-04-24 13:10 | 25.26370 | 51.64778 | 19605 ft | 224 kts | 66° |
| 2026-04-24 13:11 | 25.26947 | 51.66387 | 20147 ft | 226 kts | 66° |
| 2026-04-24 13:11 | 25.27519 | 51.67984 | 20675 ft | 227 kts | 66° |
| 2026-04-24 13:11 | 25.28106 | 51.69617 | 21211 ft | 229 kts | 66° |
| 2026-04-24 13:11 | 25.28696 | 51.71262 | 21759 ft | 231 kts | 66° |
| 2026-04-24 13:12 | 25.29294 | 51.72926 | 22289 ft | 233 kts | 66° |
| 2026-04-24 13:12 | 25.29895 | 51.74602 | 22821 ft | 236 kts | 66° |
| 2026-04-24 13:12 | 25.30501 | 51.76292 | 23364 ft | 237 kts | 66° |
| 2026-04-24 13:12 | 25.31107 | 51.77981 | 23856 ft | 236 kts | 66° |
| 2026-04-24 13:13 | 25.31711 | 51.79667 | 24343 ft | 236 kts | 66° |
| 2026-04-24 13:13 | 25.32320 | 51.81365 | 24736 ft | 241 kts | 66° |
| 2026-04-24 13:13 | 25.32961 | 51.83155 | 24872 ft | 260 kts | 67° |
| 2026-04-24 13:13 | 25.33501 | 51.85149 | 24884 ft | 281 kts | 83° |
| 2026-04-24 13:14 | 25.33458 | 51.87350 | 24888 ft | 293 kts | 103° |
| 2026-04-24 13:14 | 25.33017 | 51.89580 | 24891 ft | 302 kts | 105° |
| 2026-04-24 13:14 | 25.32545 | 51.91869 | 24884 ft | 308 kts | 105° |
| 2026-04-24 13:14 | 25.32086 | 51.94173 | 24881 ft | 312 kts | 105° |
| 2026-04-24 13:15 | 25.31622 | 51.96525 | 24883 ft | 314 kts | 105° |
| 2026-04-24 13:15 | 25.31151 | 51.98890 | 24879 ft | 315 kts | 105° |
| 2026-04-24 13:15 | 25.30675 | 52.01261 | 24872 ft | 315 kts | 105° |
| 2026-04-24 13:15 | 25.30202 | 52.03626 | 24872 ft | 315 kts | 105° |
| 2026-04-24 13:16 | 25.29729 | 52.05990 | 24867 ft | 315 kts | 105° |
| 2026-04-24 13:16 | 25.29207 | 52.08333 | 24863 ft | 312 kts | 112° |
| 2026-04-24 13:16 | 25.28276 | 52.10471 | 24858 ft | 306 kts | 127° |
| 2026-04-24 13:16 | 25.27025 | 52.12308 | 24863 ft | 302 kts | 134° |
| 2026-04-24 13:17 | 25.25713 | 52.14128 | 24867 ft | 303 kts | 134° |
| 2026-04-24 13:17 | 25.24405 | 52.15960 | 24870 ft | 304 kts | 134° |
| 2026-04-24 13:17 | 25.23095 | 52.17793 | 24871 ft | 305 kts | 134° |
| 2026-04-24 13:17 | 25.21778 | 52.19630 | 24873 ft | 305 kts | 134° |
| 2026-04-24 13:18 | 25.20461 | 52.21467 | 24870 ft | 306 kts | 134° |
| 2026-04-24 13:18 | 25.19140 | 52.23309 | 24875 ft | 306 kts | 134° |
| 2026-04-24 13:18 | 25.17821 | 52.25148 | 24876 ft | 306 kts | 134° |
| 2026-04-24 13:18 | 25.16498 | 52.26992 | 24876 ft | 306 kts | 134° |
| 2026-04-24 13:19 | 25.15177 | 52.28833 | 24872 ft | 306 kts | 134° |
| 2026-04-24 13:19 | 25.13856 | 52.30671 | 24867 ft | 306 kts | 134° |
| 2026-04-24 13:19 | 25.12530 | 52.32517 | 24867 ft | 306 kts | 134° |
| 2026-04-24 13:19 | 25.11211 | 52.34352 | 24866 ft | 305 kts | 134° |
| 2026-04-24 13:20 | 25.09888 | 52.36193 | 24865 ft | 305 kts | 134° |
| 2026-04-24 13:20 | 25.08570 | 52.38026 | 24861 ft | 305 kts | 134° |
| 2026-04-24 13:20 | 25.07251 | 52.39859 | 24858 ft | 305 kts | 134° |
| 2026-04-24 13:20 | 25.05934 | 52.41689 | 24860 ft | 304 kts | 134° |
| 2026-04-24 13:21 | 25.04617 | 52.43517 | 24861 ft | 304 kts | 134° |
| 2026-04-24 13:21 | 25.03301 | 52.45344 | 24856 ft | 304 kts | 134° |
| 2026-04-24 13:21 | 25.01988 | 52.47167 | 24860 ft | 304 kts | 134° |
| 2026-04-24 13:21 | 25.00780 | 52.49099 | 24854 ft | 310 kts | 123° |
| 2026-04-24 13:22 | 24.99981 | 52.51286 | 24857 ft | 314 kts | 112° |
| 2026-04-24 13:22 | 24.99311 | 52.53582 | 24862 ft | 315 kts | 112° |
| 2026-04-24 13:22 | 24.98632 | 52.55873 | 24869 ft | 315 kts | 112° |
| 2026-04-24 13:22 | 24.97947 | 52.58166 | 24857 ft | 314 kts | 112° |
| 2026-04-24 13:23 | 24.97266 | 52.60455 | 24856 ft | 314 kts | 112° |
| 2026-04-24 13:23 | 24.96587 | 52.62744 | 24858 ft | 313 kts | 112° |
| 2026-04-24 13:23 | 24.95908 | 52.65025 | 24859 ft | 313 kts | 112° |
| 2026-04-24 13:23 | 24.95239 | 52.67273 | 24857 ft | 313 kts | 112° |
| 2026-04-24 13:24 | 24.94620 | 52.69583 | 24859 ft | 313 kts | 109° |
| 2026-04-24 13:24 | 24.94074 | 52.71873 | 24859 ft | 314 kts | 109° |
| 2026-04-24 13:24 | 24.93512 | 52.74200 | 24860 ft | 314 kts | 109° |
| 2026-04-24 13:24 | 24.92947 | 52.76515 | 24856 ft | 314 kts | 109° |
| 2026-04-24 13:25 | 24.92380 | 52.78840 | 24858 ft | 313 kts | 109° |
| 2026-04-24 13:25 | 24.91816 | 52.81161 | 24854 ft | 313 kts | 109° |
| 2026-04-24 13:25 | 24.91251 | 52.83482 | 24854 ft | 313 kts | 109° |
| 2026-04-24 13:25 | 24.90686 | 52.85803 | 24857 ft | 313 kts | 109° |
| 2026-04-24 13:26 | 24.90121 | 52.88120 | 24856 ft | 313 kts | 109° |
| 2026-04-24 13:26 | 24.89554 | 52.90440 | 24853 ft | 313 kts | 109° |
| 2026-04-24 13:26 | 24.88995 | 52.92730 | 24857 ft | 313 kts | 109° |
| 2026-04-24 13:26 | 24.88428 | 52.95051 | 24853 ft | 313 kts | 109° |
| 2026-04-24 13:27 | 24.87860 | 52.97377 | 24856 ft | 313 kts | 109° |
| 2026-04-24 13:27 | 24.87293 | 52.99692 | 24854 ft | 313 kts | 109° |
| 2026-04-24 13:27 | 24.86726 | 53.02007 | 24852 ft | 313 kts | 109° |
| 2026-04-24 13:27 | 24.86157 | 53.04331 | 24850 ft | 313 kts | 109° |
| 2026-04-24 13:28 | 24.85590 | 53.06643 | 24853 ft | 312 kts | 109° |
| 2026-04-24 13:28 | 24.85024 | 53.08949 | 24852 ft | 312 kts | 109° |
| 2026-04-24 13:28 | 24.84457 | 53.11255 | 24850 ft | 312 kts | 109° |
| 2026-04-24 13:28 | 24.83889 | 53.13567 | 24847 ft | 312 kts | 109° |
| 2026-04-24 13:29 | 24.83322 | 53.15872 | 24843 ft | 312 kts | 109° |
| 2026-04-24 13:29 | 24.82763 | 53.18146 | 24843 ft | 312 kts | 109° |
| 2026-04-24 13:29 | 24.82187 | 53.20481 | 24843 ft | 312 kts | 109° |
| 2026-04-24 13:29 | 24.81628 | 53.22751 | 24844 ft | 312 kts | 109° |
| 2026-04-24 13:30 | 24.81060 | 53.25053 | 24846 ft | 312 kts | 109° |
| 2026-04-24 13:30 | 24.80491 | 53.27357 | 24847 ft | 311 kts | 109° |
| 2026-04-24 13:30 | 24.79927 | 53.29643 | 24848 ft | 311 kts | 109° |
| 2026-04-24 13:30 | 24.79355 | 53.31958 | 24844 ft | 311 kts | 109° |
| 2026-04-24 13:31 | 24.78785 | 53.34261 | 24847 ft | 311 kts | 109° |
| 2026-04-24 13:31 | 24.78214 | 53.36565 | 24848 ft | 311 kts | 109° |
| 2026-04-24 13:31 | 24.77653 | 53.38826 | 24845 ft | 311 kts | 109° |
| 2026-04-24 13:31 | 24.77097 | 53.41078 | 24069 ft | 307 kts | 109° |
| 2026-04-24 13:32 | 24.76522 | 53.43371 | 23123 ft | 313 kts | 109° |
| 2026-04-24 13:32 | 24.75948 | 53.45684 | 22151 ft | 313 kts | 108° |
| 2026-04-24 13:32 | 24.75375 | 53.47994 | 21153 ft | 314 kts | 108° |
| 2026-04-24 13:32 | 24.74812 | 53.50259 | 20754 ft | 294 kts | 107° |
| 2026-04-24 13:33 | 24.74299 | 53.52334 | 20413 ft | 276 kts | 107° |
| 2026-04-24 13:33 | 24.73773 | 53.54429 | 20052 ft | 292 kts | 107° |
| 2026-04-24 13:33 | 24.73219 | 53.56639 | 19668 ft | 307 kts | 107° |
| 2026-04-24 13:33 | 24.72649 | 53.58932 | 19247 ft | 313 kts | 106° |
| 2026-04-24 13:34 | 24.72072 | 53.61246 | 18840 ft | 315 kts | 106° |
| 2026-04-24 13:34 | 24.71492 | 53.63569 | 18424 ft | 315 kts | 105° |
| 2026-04-24 13:34 | 24.70919 | 53.65860 | 17991 ft | 314 kts | 105° |
| 2026-04-24 13:34 | 24.70342 | 53.68165 | 17555 ft | 311 kts | 105° |
| 2026-04-24 13:35 | 24.69769 | 53.70453 | 17140 ft | 308 kts | 106° |
| 2026-04-24 13:35 | 24.69202 | 53.72718 | 16727 ft | 306 kts | 106° |
| 2026-04-24 13:35 | 24.68639 | 53.74964 | 16331 ft | 303 kts | 106° |
| 2026-04-24 13:35 | 24.68080 | 53.77190 | 15931 ft | 300 kts | 106° |
| 2026-04-24 13:36 | 24.67526 | 53.79396 | 15535 ft | 298 kts | 106° |
| 2026-04-24 13:36 | 24.66976 | 53.81589 | 15143 ft | 296 kts | 106° |
| 2026-04-24 13:36 | 24.66429 | 53.83761 | 14754 ft | 295 kts | 107° |
| 2026-04-24 13:36 | 24.65883 | 53.85931 | 14366 ft | 293 kts | 107° |
| 2026-04-24 13:37 | 24.65340 | 53.88090 | 13977 ft | 292 kts | 107° |
| 2026-04-24 13:37 | 24.64808 | 53.90203 | 13592 ft | 290 kts | 107° |
| 2026-04-24 13:37 | 24.64269 | 53.92340 | 13184 ft | 288 kts | 107° |
| 2026-04-24 13:37 | 24.63714 | 53.94449 | 12783 ft | 285 kts | 111° |
| 2026-04-24 13:38 | 24.62905 | 53.96409 | 12598 ft | 279 kts | 117° |
| 2026-04-24 13:38 | 24.62097 | 53.98336 | 12398 ft | 276 kts | 117° |
| 2026-04-24 13:38 | 24.61306 | 54.00255 | 12202 ft | 274 kts | 116° |
| 2026-04-24 13:38 | 24.60518 | 54.02156 | 12007 ft | 273 kts | 117° |
| 2026-04-24 13:39 | 24.59736 | 54.04031 | 11813 ft | 273 kts | 117° |
| 2026-04-24 13:39 | 24.58948 | 54.05922 | 11665 ft | 271 kts | 117° |
| 2026-04-24 13:39 | 24.58167 | 54.07799 | 11527 ft | 270 kts | 117° |
| 2026-04-24 13:39 | 24.57384 | 54.09678 | 11357 ft | 270 kts | 117° |
| 2026-04-24 13:40 | 24.56599 | 54.11560 | 11171 ft | 271 kts | 117° |
| 2026-04-24 13:40 | 24.55813 | 54.13444 | 10980 ft | 271 kts | 117° |
| 2026-04-24 13:40 | 24.55027 | 54.15327 | 10780 ft | 271 kts | 117° |
| 2026-04-24 13:40 | 24.54240 | 54.17213 | 10588 ft | 271 kts | 117° |
| 2026-04-24 13:41 | 24.53453 | 54.19099 | 10387 ft | 270 kts | 117° |
| 2026-04-24 13:41 | 24.52748 | 54.20983 | 10193 ft | 271 kts | 115° |
| 2026-04-24 13:41 | 24.52033 | 54.22892 | 9998 ft | 271 kts | 115° |
| 2026-04-24 13:41 | 24.51309 | 54.24803 | 9795 ft | 271 kts | 115° |
| 2026-04-24 13:42 | 24.50590 | 54.26719 | 9592 ft | 271 kts | 115° |
| 2026-04-24 13:42 | 24.49876 | 54.28631 | 9384 ft | 270 kts | 115° |
| 2026-04-24 13:42 | 24.49164 | 54.30531 | 9183 ft | 270 kts | 115° |
| 2026-04-24 13:42 | 24.48451 | 54.32431 | 8985 ft | 269 kts | 115° |
| 2026-04-24 13:43 | 24.47738 | 54.34330 | 8786 ft | 268 kts | 115° |
| 2026-04-24 13:43 | 24.47028 | 54.36221 | 8585 ft | 268 kts | 115° |
| 2026-04-24 13:43 | 24.46321 | 54.38105 | 8392 ft | 267 kts | 115° |
| 2026-04-24 13:43 | 24.45613 | 54.39991 | 8198 ft | 266 kts | 114° |
| 2026-04-24 13:44 | 24.44904 | 54.41874 | 8011 ft | 267 kts | 115° |
| 2026-04-24 13:44 | 24.44200 | 54.43747 | 7814 ft | 265 kts | 115° |
| 2026-04-24 13:44 | 24.43547 | 54.45640 | 7626 ft | 265 kts | 110° |
| 2026-04-24 13:44 | 24.42955 | 54.47560 | 7430 ft | 266 kts | 111° |
| 2026-04-24 13:45 | 24.42350 | 54.49476 | 7234 ft | 265 kts | 111° |
| 2026-04-24 13:45 | 24.41753 | 54.51366 | 7048 ft | 266 kts | 111° |
| 2026-04-24 13:45 | 24.41150 | 54.53285 | 6852 ft | 266 kts | 110° |
| 2026-04-24 13:45 | 24.40551 | 54.55197 | 6661 ft | 264 kts | 110° |
| 2026-04-24 13:46 | 24.39951 | 54.57106 | 6468 ft | 264 kts | 110° |
| 2026-04-24 13:46 | 24.39348 | 54.59018 | 6276 ft | 266 kts | 110° |
| 2026-04-24 13:46 | 24.38746 | 54.60934 | 6073 ft | 264 kts | 110° |
| 2026-04-24 13:46 | 24.38148 | 54.62833 | 5879 ft | 263 kts | 110° |
| 2026-04-24 13:47 | 24.37554 | 54.64719 | 5683 ft | 262 kts | 110° |
| 2026-04-24 13:47 | 24.36957 | 54.66611 | 5491 ft | 262 kts | 111° |
| 2026-04-24 13:47 | 24.36561 | 54.67866 | 5362 ft | 263 kts | 110° |
| 2026-04-24 13:47 | 24.35540 | 54.70225 | 5103 ft | 258 kts | 132° |
| 2026-04-24 13:48 | 24.34125 | 54.71383 | 4910 ft | 253 kts | 157° |
| 2026-04-24 13:48 | 24.32430 | 54.71767 | 4728 ft | 248 kts | 183° |
| 2026-04-24 13:48 | 24.30769 | 54.71344 | 4541 ft | 244 kts | 207° |
| 2026-04-24 13:48 | 24.29438 | 54.70227 | 4359 ft | 240 kts | 231° |
| 2026-04-24 13:49 | 24.28651 | 54.68646 | 4182 ft | 237 kts | 253° |
| 2026-04-24 13:49 | 24.28506 | 54.66880 | 4006 ft | 224 kts | 276° |
| 2026-04-24 13:49 | 24.28748 | 54.65803 | 3887 ft | 217 kts | 290° |
| 2026-04-24 13:49 | 24.29485 | 54.64457 | 3738 ft | 198 kts | 307° |
| 2026-04-24 13:50 | 24.30319 | 54.63325 | 3597 ft | 179 kts | 307° |
| 2026-04-24 13:50 | 24.31291 | 54.61988 | 3425 ft | 159 kts | 306° |
| 2026-04-24 13:50 | 24.31739 | 54.61360 | 3347 ft | 153 kts | 306° |
| 2026-04-24 13:50 | 24.32393 | 54.60433 | 3243 ft | 157 kts | 307° |
| 2026-04-24 13:51 | 24.33064 | 54.59488 | 3155 ft | 152 kts | 306° |
| 2026-04-24 13:51 | 24.33697 | 54.58608 | 3049 ft | 141 kts | 306° |
| 2026-04-24 13:51 | 24.34265 | 54.57814 | 2978 ft | 123 kts | 306° |
| 2026-04-24 13:51 | 24.34778 | 54.57092 | 2974 ft | 120 kts | 307° |
| 2026-04-24 13:52 | 24.35293 | 54.56363 | 2838 ft | 123 kts | 308° |
| 2026-04-24 13:52 | 24.35791 | 54.55684 | 2581 ft | 108 kts | 308° |
| 2026-04-24 13:52 | 24.36230 | 54.55069 | 2265 ft | 99 kts | 309° |
| 2026-04-24 13:52 | 24.36634 | 54.54500 | 1962 ft | 90 kts | 311° |
| 2026-04-24 13:53 | 24.36996 | 54.53989 | 1844 ft | 83 kts | 315° |
| 2026-04-24 13:53 | 24.37375 | 54.53460 | 1728 ft | 92 kts | 315° |
| 2026-04-24 13:53 | 24.37770 | 54.52903 | 1593 ft | 92 kts | 315° |
| 2026-04-24 13:53 | 24.38155 | 54.52366 | 1453 ft | 87 kts | 319° |
| 2026-04-24 13:54 | 24.38517 | 54.51856 | 1329 ft | 84 kts | 318° |
| 2026-04-24 13:54 | 24.38882 | 54.51352 | 1206 ft | 86 kts | 317° |
| 2026-04-24 13:54 | 24.39255 | 54.50826 | 1078 ft | 88 kts | 318° |
| 2026-04-24 13:54 | 24.39631 | 54.50296 | 946 ft | 88 kts | 317° |
| 2026-04-24 13:55 | 24.40009 | 54.49771 | 820 ft | 90 kts | 315° |
| 2026-04-24 13:55 | 24.40406 | 54.49215 | 697 ft | 94 kts | 314° |
| 2026-04-24 13:55 | 24.40787 | 54.48679 | 562 ft | 83 kts | 311° |
| 2026-04-24 13:55 | 24.41119 | 54.48208 | 443 ft | 76 kts | 311° |
| 2026-04-24 13:56 | 24.41478 | 54.47765 | 329 ft | 78 kts | 315° |
| 2026-04-24 13:56 | 24.41810 | 54.47248 | 181 ft | 89 kts | 310° |
| 2026-04-24 13:56 | 24.42204 | 54.46704 | 76 ft | 93 kts | 310° |
| 2026-04-24 13:56 | 24.42564 | 54.46201 | 19 ft | 62 kts | 313° |
| 2026-04-24 13:57 | 24.42753 | 54.45936 | 16 ft | 40 kts | 307° |
| 2026-04-24 13:57 | 24.42909 | 54.45711 | 15 ft | 39 kts | 302° |
| 2026-04-24 13:57 | 24.42991 | 54.45469 | 16 ft | 35 kts | 279° |
| 2026-04-24 13:57 | 24.43016 | 54.45292 | 16 ft | 18 kts | 278° |
| 2026-04-24 13:58 | 24.42956 | 54.45337 | 16 ft | 21 kts | 128° |
| 2026-04-24 13:58 | 24.42868 | 54.45342 | 16 ft | 11 kts | 123° |
| 2026-04-24 13:58 | 24.42852 | 54.45366 | 16 ft | 0 kts | 125° |